Time;durP1;ratioP1;P1;durP2;ratioP2;P2;SDS_P1;SDS_P2;PMS_P1;PMS_P2;Temp;Humidity;BMP_temperature;BMP_pressure;BME280_temperature;BME280_humidity;BME280_pressure;Samples;Min_cycle;Max_cycle;Signal;HPM_P1;HPM_P2
2023/06/14 00:01:38;;;;;;;5.80;4.03;;;22.90;40.80;;;;;;5113391;28;20020;-77
2023/06/14 00:04:08;;;;;;;7.15;4.32;;;22.90;41.10;;;;;;5114360;28;20024;-77
2023/06/14 00:06:34;;;;;;;9.32;4.72;;;22.90;41.10;;;;;;5114218;28;20024;-76
2023/06/14 00:09:00;;;;;;;8.57;4.05;;;22.90;40.80;;;;;;5113171;28;20119;-77
2023/06/14 00:11:26;;;;;;;6.65;4.13;;;22.90;41.10;;;;;;5114257;28;20032;-77
2023/06/14 00:13:52;;;;;;;6.45;4.15;;;22.80;40.90;;;;;;5114117;28;20100;-77
2023/06/14 00:16:19;;;;;;;5.07;3.95;;;22.80;40.60;;;;;;5113058;28;20027;-77
2023/06/14 00:18:45;;;;;;;6.03;3.72;;;22.70;40.50;;;;;;5114015;28;20019;-77
2023/06/14 00:21:12;;;;;;;7.72;4.07;;;22.70;40.00;;;;;;5113991;28;20020;-76
2023/06/14 00:23:37;;;;;;;6.10;4.25;;;22.70;39.90;;;;;;5113916;28;20042;-77
2023/06/14 00:26:03;;;;;;;5.35;4.07;;;22.70;39.70;;;;;;5112943;28;20027;-77
2023/06/14 00:28:29;;;;;;;7.78;4.13;;;22.70;39.60;;;;;;5113874;28;20050;-76
2023/06/14 00:30:55;;;;;;;5.25;3.55;;;22.70;39.60;;;;;;5113845;28;20035;-77
2023/06/14 00:33:21;;;;;;;6.65;3.67;;;22.60;39.60;;;;;;5112781;28;20028;-77
2023/06/14 00:35:47;;;;;;;6.53;3.78;;;22.60;39.80;;;;;;5112599;28;20054;-76
2023/06/14 00:38:12;;;;;;;7.20;4.00;;;22.60;39.90;;;;;;5113711;28;20012;-77
2023/06/14 00:40:38;;;;;;;5.70;3.55;;;22.60;39.70;;;;;;5112682;28;20028;-76
2023/06/14 00:43:04;;;;;;;7.25;4.68;;;22.50;39.50;;;;;;5113689;28;20024;-76
2023/06/14 00:45:31;;;;;;;5.20;3.80;;;22.50;39.30;;;;;;5113653;28;20028;-76
2023/06/14 00:47:57;;;;;;;8.05;3.63;;;22.50;39.10;;;;;;5113616;28;20021;-76
2023/06/14 00:50:24;;;;;;;7.03;3.63;;;22.50;38.90;;;;;;5113597;28;20028;-76
2023/06/14 00:52:50;;;;;;;6.13;3.90;;;22.50;38.80;;;;;;5113546;28;20020;-77
2023/06/14 00:55:16;;;;;;;8.10;3.83;;;22.40;38.70;;;;;;5112625;28;20024;-76
2023/06/14 00:57:41;;;;;;;7.22;3.60;;;22.40;39.70;;;;;;5113447;28;20039;-76
2023/06/14 01:00:09;;;;;;;6.50;3.72;;;22.40;38.70;;;;;;5113525;28;20028;-76
2023/06/14 01:02:37;;;;;;;5.00;3.35;;;22.40;38.50;;;;;;5113482;28;20016;-77
2023/06/14 01:05:03;;;;;;;5.75;3.72;;;22.30;38.50;;;;;;5113459;28;20034;-77
2023/06/14 01:07:54;;;;;;;8.40;3.63;;;22.30;38.80;;;;;;5112496;28;20024;-77
2023/06/14 01:10:38;;;;;;;8.88;3.47;;;22.30;38.90;;;;;;5113525;28;20025;-76
2023/06/14 01:13:07;;;;;;;5.55;3.10;;;22.30;39.00;;;;;;5113462;28;20528;-76
2023/06/14 01:15:33;;;;;;;5.10;3.50;;;22.30;39.40;;;;;;5113432;28;20463;-76
2023/06/14 01:18:03;;;;;;;7.40;3.50;;;22.20;39.20;;;;;;5112454;28;20016;-76
2023/06/14 01:20:31;;;;;;;6.97;3.20;;;22.10;39.20;;;;;;5113329;28;20025;-77
2023/06/14 01:22:56;;;;;;;5.00;3.28;;;22.10;39.40;;;;;;5113296;28;20017;-76
2023/06/14 01:25:23;;;;;;;5.05;3.47;;;22.00;39.40;;;;;;5113259;28;20066;-76
2023/06/14 01:27:57;;;;;;;5.72;3.40;;;22.00;39.30;;;;;;5112325;28;20021;-76
2023/06/14 01:30:25;;;;;;;4.50;3.28;;;21.90;39.70;;;;;;5112222;28;20028;-76
2023/06/14 01:32:52;;;;;;;9.95;3.20;;;21.90;40.00;;;;;;5113221;28;20029;-76
2023/06/14 01:35:18;;;;;;;5.85;3.10;;;21.90;40.20;;;;;;5112937;28;20048;-77
2023/06/14 01:37:46;;;;;;;5.63;3.20;;;21.80;40.50;;;;;;5113315;28;20028;-76
2023/06/14 01:40:13;;;;;;;6.22;3.55;;;21.80;40.60;;;;;;5112208;28;20027;-76
2023/06/14 01:42:40;;;;;;;5.13;3.20;;;21.80;40.80;;;;;;5112214;28;20111;-76
2023/06/14 01:45:06;;;;;;;6.40;3.25;;;21.70;41.60;;;;;;5113109;28;20027;-76
2023/06/14 01:47:34;;;;;;;5.25;3.00;;;21.70;40.80;;;;;;5114761;28;20028;-77
2023/06/14 01:49:59;;;;;;;6.63;3.35;;;21.70;41.00;;;;;;5116874;28;20032;-76
2023/06/14 01:52:25;;;;;;;7.95;3.13;;;21.60;41.10;;;;;;5115768;28;20035;-76
2023/06/14 01:54:51;;;;;;;4.85;2.95;;;21.60;40.60;;;;;;5115845;28;20044;-76
2023/06/14 01:57:17;;;;;;;4.78;3.13;;;21.50;40.80;;;;;;5116628;28;20031;-77
2023/06/14 01:59:42;;;;;;;4.57;2.95;;;21.50;41.00;;;;;;5116818;28;20038;-76
2023/06/14 02:02:08;;;;;;;7.55;3.05;;;21.50;41.50;;;;;;5115681;28;20025;-76
2023/06/14 02:04:34;;;;;;;6.38;3.10;;;21.40;41.60;;;;;;5115587;28;20032;-76
2023/06/14 02:07:00;;;;;;;6.60;3.30;;;21.40;41.80;;;;;;5116599;28;20028;-76
2023/06/14 02:09:25;;;;;;;6.05;3.45;;;21.40;42.00;;;;;;5116505;28;20512;-76
2023/06/14 02:11:51;;;;;;;7.15;3.63;;;21.40;41.50;;;;;;5116441;28;20028;-76
2023/06/14 02:14:17;;;;;;;5.28;3.28;;;21.30;41.70;;;;;;5116425;28;20051;-76
2023/06/14 02:16:48;;;;;;;5.32;3.13;;;21.30;42.20;;;;;;5116284;28;20032;-76
2023/06/14 02:19:16;;;;;;;5.60;2.85;;;21.30;42.50;;;;;;5115456;28;20023;-76
2023/06/14 02:21:42;;;;;;;4.95;3.38;;;21.30;42.50;;;;;;5116262;28;20062;-76
2023/06/14 02:24:07;;;;;;;12.88;3.38;;;21.30;43.60;;;;;;5115217;28;20031;-76
2023/06/14 02:26:33;;;;;;;4.65;3.17;;;21.30;42.40;;;;;;5116192;28;20032;-76
2023/06/14 02:28:59;;;;;;;5.43;3.53;;;21.30;42.60;;;;;;5116177;28;20028;-76
2023/06/14 02:31:25;;;;;;;6.10;3.47;;;21.20;42.70;;;;;;5116071;28;20390;-76
2023/06/14 02:33:51;;;;;;;5.40;3.28;;;21.20;42.70;;;;;;5115965;28;20020;-76
2023/06/14 02:36:17;;;;;;;5.38;3.30;;;21.10;43.00;;;;;;5115749;28;20121;-76
2023/06/14 02:38:42;;;;;;;3.97;2.80;;;21.10;43.00;;;;;;5115965;28;20024;-76
2023/06/14 02:41:08;;;;;;;5.70;3.55;;;21.00;43.10;;;;;;5115930;28;20032;-76
2023/06/14 02:43:33;;;;;;;8.65;3.42;;;21.00;43.60;;;;;;5114869;28;20020;-76
2023/06/14 02:45:59;;;;;;;4.97;2.90;;;21.00;43.50;;;;;;5114551;28;20028;-75
2023/06/14 02:48:25;;;;;;;6.50;2.92;;;21.00;43.70;;;;;;5114766;28;20034;-75
2023/06/14 02:50:51;;;;;;;7.60;3.33;;;20.90;43.90;;;;;;5114795;28;20039;-76
2023/06/14 02:53:17;;;;;;;7.32;3.30;;;20.80;44.10;;;;;;5114625;28;20024;-76
2023/06/14 02:55:42;;;;;;;6.32;3.47;;;20.80;44.40;;;;;;5114623;28;20087;-75
2023/06/14 02:58:08;;;;;;;6.82;2.95;;;20.70;44.40;;;;;;5115150;28;20024;-76
2023/06/14 03:00:35;;;;;;;5.72;2.97;;;20.70;44.60;;;;;;5114963;28;20463;-75
2023/06/14 03:03:04;;;;;;;4.45;3.10;;;20.80;44.70;;;;;;5115474;28;20479;-75
2023/06/14 03:05:30;;;;;;;5.28;3.10;;;20.70;44.20;;;;;;5115451;28;20070;-76
2023/06/14 03:07:56;;;;;;;8.05;3.10;;;20.70;44.10;;;;;;5115333;28;20016;-76
2023/06/14 03:10:22;;;;;;;5.68;3.53;;;20.60;44.40;;;;;;5115317;28;20020;-76
2023/06/14 03:12:48;;;;;;;5.25;2.85;;;20.60;44.40;;;;;;5115264;28;20020;-76
2023/06/14 03:15:13;;;;;;;5.22;3.00;;;20.60;44.70;;;;;;5115292;28;20024;-76
2023/06/14 03:17:39;;;;;;;7.30;3.03;;;20.50;44.70;;;;;;5115122;28;20081;-76
2023/06/14 03:20:05;;;;;;;5.40;3.05;;;20.50;45.00;;;;;;5114219;28;20021;-76
2023/06/14 03:22:34;;;;;;;5.72;3.10;;;20.40;45.30;;;;;;5114141;28;20028;-76
2023/06/14 03:25:00;;;;;;;4.90;3.00;;;20.40;45.20;;;;;;5115060;28;20081;-77
2023/06/14 03:27:28;;;;;;;6.78;3.92;;;20.40;45.40;;;;;;5114999;28;20461;-76
2023/06/14 03:29:54;;;;;;;4.53;3.22;;;20.40;44.90;;;;;;5115050;28;20115;-76
2023/06/14 03:32:19;;;;;;;4.65;3.10;;;20.40;45.30;;;;;;5114869;28;20035;-76
2023/06/14 03:34:45;;;;;;;8.73;3.20;;;20.40;45.40;;;;;;5113747;28;20057;-76
2023/06/14 03:37:11;;;;;;;5.78;3.20;;;20.40;45.70;;;;;;5114503;28;20066;-76
2023/06/14 03:39:36;;;;;;;8.40;3.35;;;20.40;45.70;;;;;;5113726;28;20494;-76
2023/06/14 03:42:02;;;;;;;6.47;2.92;;;20.30;45.90;;;;;;5114713;28;20021;-76
2023/06/14 03:44:28;;;;;;;5.95;3.17;;;20.30;46.40;;;;;;5113664;28;20028;-75
2023/06/14 03:46:53;;;;;;;4.63;3.00;;;20.20;46.40;;;;;;5114717;28;20092;-76
2023/06/14 03:49:19;;;;;;;4.82;3.03;;;20.20;46.60;;;;;;5114578;28;20095;-76
2023/06/14 03:51:51;;;;;;;5.70;3.10;;;20.20;46.70;;;;;;5113506;28;20025;-76
2023/06/14 03:54:16;;;;;;;6.55;3.53;;;20.20;46.70;;;;;;5113788;28;20039;-76
2023/06/14 03:56:42;;;;;;;6.53;3.25;;;20.20;46.30;;;;;;5114348;28;20028;-76
2023/06/14 03:59:07;;;;;;;4.43;3.10;;;20.10;46.90;;;;;;5113418;28;20021;-76
2023/06/14 04:01:33;;;;;;;5.03;3.13;;;20.20;47.40;;;;;;5114339;28;20059;-76
2023/06/14 04:03:59;;;;;;;4.40;2.80;;;20.10;47.20;;;;;;5114306;28;20020;-76
2023/06/14 04:06:31;;;;;;;6.15;3.10;;;20.10;47.50;;;;;;5114283;28;20028;-76
2023/06/14 04:09:01;;;;;;;4.68;3.08;;;20.10;48.10;;;;;;5114291;28;20024;-76
2023/06/14 04:11:26;;;;;;;5.88;3.10;;;20.00;48.20;;;;;;5114155;28;20130;-76
2023/06/14 04:13:53;;;;;;;6.20;3.00;;;20.00;48.20;;;;;;5114273;28;20028;-76
2023/06/14 04:16:19;;;;;;;5.70;3.08;;;20.10;48.20;;;;;;5113995;28;20012;-75
2023/06/14 04:18:46;;;;;;;5.20;3.40;;;20.00;48.50;;;;;;5114056;28;20024;-75
2023/06/14 04:21:12;;;;;;;5.20;2.90;;;20.00;49.10;;;;;;5113996;28;20039;-76
2023/06/14 04:23:38;;;;;;;6.03;3.08;;;20.00;49.20;;;;;;5114082;28;20032;-76
2023/06/14 04:26:04;;;;;;;5.05;2.90;;;20.00;48.90;;;;;;5112984;28;20063;-76
2023/06/14 04:28:30;;;;;;;6.95;2.80;;;20.00;48.80;;;;;;5113904;28;20073;-76
2023/06/14 04:30:56;;;;;;;9.68;3.58;;;20.00;49.20;;;;;;5114014;28;20028;-76
2023/06/14 04:33:25;;;;;;;5.68;3.45;;;20.00;48.90;;;;;;5113763;28;20024;-76
2023/06/14 04:35:53;;;;;;;5.55;3.35;;;20.00;49.20;;;;;;5113530;28;20103;-76
2023/06/14 04:38:23;;;;;;;5.68;3.20;;;20.00;49.10;;;;;;5113772;28;20491;-76
2023/06/14 04:40:52;;;;;;;4.93;3.00;;;20.00;49.20;;;;;;5112817;28;20042;-76
2023/06/14 04:43:25;;;;;;;8.88;3.22;;;20.00;48.90;;;;;;5113694;28;20038;-76
2023/06/14 04:45:51;;;;;;;6.60;2.70;;;19.90;49.10;;;;;;5096820;28;20028;-76
2023/06/14 04:48:18;;;;;;;7.55;3.30;;;19.90;49.20;;;;;;5095709;28;20024;-76
2023/06/14 04:50:43;;;;;;;5.68;2.85;;;20.00;49.50;;;;;;5112692;28;20024;-76
2023/06/14 04:53:10;;;;;;;5.30;2.97;;;20.00;49.20;;;;;;5112655;28;20054;-76
2023/06/14 04:55:37;;;;;;;5.15;3.08;;;20.00;49.20;;;;;;5113513;28;20020;-76
2023/06/14 04:58:03;;;;;;;7.15;3.42;;;20.00;49.20;;;;;;5112608;28;20039;-77
2023/06/14 05:00:30;;;;;;;5.78;2.70;;;19.90;49.30;;;;;;5112731;28;20024;-76
2023/06/14 05:02:56;;;;;;;5.13;3.10;;;20.00;49.60;;;;;;5112518;28;20118;-77
2023/06/14 05:05:22;;;;;;;4.57;3.13;;;19.90;49.00;;;;;;5112611;28;20024;-77
2023/06/14 05:07:48;;;;;;;7.60;2.88;;;19.90;49.00;;;;;;5113560;28;20029;-76
2023/06/14 05:10:14;;;;;;;4.38;3.13;;;19.90;49.40;;;;;;5113421;28;20035;-76
2023/06/14 05:12:39;;;;;;;4.05;2.85;;;19.90;49.20;;;;;;5095560;28;20035;-76
2023/06/14 05:15:05;;;;;;;5.60;3.22;;;19.90;49.40;;;;;;5112433;28;20036;-77
2023/06/14 05:17:31;;;;;;;8.27;3.00;;;19.90;49.50;;;;;;5113268;28;20031;-76
2023/06/14 05:19:57;;;;;;;5.10;3.22;;;19.90;49.50;;;;;;5113295;28;20028;-77
2023/06/14 05:22:23;;;;;;;4.80;3.00;;;19.90;49.60;;;;;;5114704;28;20032;-77
2023/06/14 05:24:49;;;;;;;4.97;2.97;;;20.00;49.60;;;;;;5099340;28;20035;-77
2023/06/14 05:27:16;;;;;;;5.50;3.05;;;20.00;49.70;;;;;;5117407;28;20040;-77
2023/06/14 05:29:42;;;;;;;6.53;3.03;;;20.00;49.10;;;;;;5116323;28;20035;-76
2023/06/14 05:32:07;;;;;;;4.53;2.92;;;20.10;49.30;;;;;;5116267;28;20020;-77
2023/06/14 05:34:33;;;;;;;4.93;3.10;;;20.10;49.40;;;;;;5116063;28;20032;-77
2023/06/14 05:37:00;;;;;;;6.18;3.30;;;20.10;48.80;;;;;;5116054;28;20044;-77
2023/06/14 05:39:25;;;;;;;8.55;3.65;;;20.10;49.10;;;;;;5099278;28;20048;-77
2023/06/14 05:41:51;;;;;;;5.78;3.42;;;20.10;49.50;;;;;;5117003;28;20028;-77
2023/06/14 05:44:17;;;;;;;6.00;3.58;;;20.10;49.60;;;;;;5117120;28;20024;-77
2023/06/14 05:46:43;;;;;;;5.28;2.88;;;20.10;49.50;;;;;;5116920;28;20032;-77
2023/06/14 05:49:08;;;;;;;4.72;3.30;;;20.10;49.40;;;;;;5115939;28;20032;-77
2023/06/14 05:51:35;;;;;;;7.75;3.33;;;20.20;49.10;;;;;;5115967;28;20035;-76
2023/06/14 05:54:00;;;;;;;5.72;3.20;;;20.20;48.80;;;;;;5116837;28;20059;-76
2023/06/14 05:56:26;;;;;;;5.53;3.20;;;20.20;49.10;;;;;;5116712;28;20025;-76
2023/06/14 05:58:52;;;;;;;4.22;3.25;;;20.20;48.80;;;;;;5115762;28;20029;-76
2023/06/14 06:01:17;;;;;;;6.10;3.25;;;20.20;48.50;;;;;;5116645;28;20030;-77
2023/06/14 06:03:46;;;;;;;4.47;3.00;;;20.20;49.70;;;;;;5115578;28;20024;-76
2023/06/14 06:06:12;;;;;;;6.70;3.17;;;20.20;48.90;;;;;;5116681;28;20092;-76
2023/06/14 06:08:38;;;;;;;6.35;3.65;;;20.30;49.80;;;;;;5116470;28;20077;-76
2023/06/14 06:11:04;;;;;;;5.32;3.38;;;20.30;49.50;;;;;;5115515;28;20024;-76
2023/06/14 06:13:29;;;;;;;4.80;3.05;;;20.40;49.70;;;;;;5115429;28;20035;-76
2023/06/14 06:15:56;;;;;;;5.20;3.03;;;20.40;48.80;;;;;;5115355;28;20103;-76
2023/06/14 06:18:21;;;;;;;5.57;3.15;;;20.50;48.30;;;;;;5115379;28;20091;-76
2023/06/14 06:20:47;;;;;;;3.58;2.88;;;20.40;48.40;;;;;;5115385;28;20041;-76
2023/06/14 06:23:13;;;;;;;5.18;3.22;;;20.50;48.90;;;;;;5115173;28;20023;-77
2023/06/14 06:25:38;;;;;;;6.68;4.30;;;20.50;49.30;;;;;;5116119;28;20035;-77
2023/06/14 06:28:04;;;;;;;5.80;3.40;;;20.50;48.60;;;;;;5115046;28;20075;-77
2023/06/14 06:30:29;;;;;;;3.88;3.10;;;20.60;49.50;;;;;;5098200;28;20028;-76
2023/06/14 06:32:55;;;;;;;5.25;3.00;;;20.70;49.60;;;;;;5097714;28;20028;-77
2023/06/14 06:35:21;;;;;;;8.02;3.28;;;20.80;48.80;;;;;;5114871;28;20027;-77
2023/06/14 06:37:46;;;;;;;6.22;3.25;;;20.90;49.20;;;;;;5115747;28;20044;-76
2023/06/14 06:40:13;;;;;;;9.93;3.40;;;20.90;48.30;;;;;;5115035;28;20028;-77
2023/06/14 06:42:39;;;;;;;5.00;3.10;;;20.90;50.20;;;;;;5114599;28;20031;-77
2023/06/14 06:45:05;;;;;;;5.57;3.30;;;21.00;49.30;;;;;;5115751;28;20016;-77
2023/06/14 06:47:31;;;;;;;5.00;3.30;;;21.10;48.80;;;;;;5115745;28;20020;-76
2023/06/14 06:49:57;;;;;;;4.72;2.92;;;21.20;49.50;;;;;;5114727;28;20035;-77
2023/06/14 06:52:22;;;;;;;6.88;3.00;;;21.30;48.70;;;;;;5115609;28;20039;-77
2023/06/14 06:54:50;;;;;;;4.70;3.10;;;21.30;48.40;;;;;;5115653;28;20035;-77
2023/06/14 06:57:16;;;;;;;5.00;3.17;;;21.40;48.30;;;;;;5114416;28;20028;-77
2023/06/14 06:59:41;;;;;;;4.47;3.30;;;21.40;47.90;;;;;;5115498;28;20031;-77
2023/06/14 07:02:36;;;;;;;4.68;3.05;;;21.50;47.60;;;;;;5097668;28;20035;-77
2023/06/14 07:05:14;;;;;;;6.82;3.05;;;21.50;48.20;;;;;;5114581;28;20030;-84
2023/06/14 07:07:49;;;;;;;4.82;3.00;;;21.60;48.50;;;;;;5114075;28;20095;-84
2023/06/14 07:10:15;;;;;;;8.23;3.08;;;21.70;47.80;;;;;;5115286;28;20039;-75
2023/06/14 07:12:42;;;;;;;9.07;2.97;;;21.80;46.70;;;;;;5114162;28;20032;-76
2023/06/14 07:15:17;;;;;;;7.03;3.45;;;21.80;47.20;;;;;;5097585;28;20470;-76
2023/06/14 07:17:43;;;;;;;4.80;2.92;;;21.90;45.50;;;;;;5113606;28;20030;-76
2023/06/14 07:20:13;;;;;;;5.43;3.05;;;22.00;45.70;;;;;;5095343;28;20107;-76
2023/06/14 07:22:40;;;;;;;5.97;3.10;;;22.00;45.50;;;;;;5115011;28;20020;-75
2023/06/14 07:25:08;;;;;;;3.85;2.72;;;22.10;46.90;;;;;;5114101;28;20027;-75
2023/06/14 07:27:34;;;;;;;4.30;2.80;;;22.20;45.60;;;;;;5114999;28;20024;-76
2023/06/14 07:30:01;;;;;;;6.05;3.10;;;22.30;45.70;;;;;;5113989;28;20030;-76
2023/06/14 07:32:26;;;;;;;3.45;2.60;;;22.30;45.20;;;;;;5115051;28;20077;-76
2023/06/14 07:34:52;;;;;;;5.85;2.85;;;22.40;44.60;;;;;;5096912;28;20032;-76
2023/06/14 07:37:52;;;;;;;3.95;2.67;;;22.50;44.30;;;;;;5111700;28;20044;-76
2023/06/14 07:40:18;;;;;;;7.13;2.70;;;22.50;43.60;;;;;;5114286;28;20031;-74
2023/06/14 07:42:43;;;;;;;6.05;2.90;;;22.50;43.90;;;;;;5114506;28;20422;-74
2023/06/14 07:45:09;;;;;;;6.25;3.67;;;22.50;42.40;;;;;;5094692;28;20028;-73
2023/06/14 07:47:35;;;;;;;14.48;10.40;;;22.50;42.50;;;;;;5112850;28;20077;-73
2023/06/14 07:50:01;;;;;;;5.65;2.60;;;22.60;43.20;;;;;;5113223;28;20023;-75
2023/06/14 07:52:26;;;;;;;3.35;2.20;;;22.60;43.20;;;;;;5114517;28;20032;-75
2023/06/14 07:54:52;;;;;;;4.75;2.50;;;22.70;43.50;;;;;;5113560;28;20098;-73
2023/06/14 07:57:20;;;;;;;4.75;2.15;;;22.80;43.90;;;;;;5113335;28;20028;-73
2023/06/14 07:59:46;;;;;;;2.53;2.00;;;22.90;43.40;;;;;;5114526;28;20024;-74
2023/06/14 08:02:11;;;;;;;4.32;1.80;;;23.00;42.00;;;;;;5114321;28;20055;-74
2023/06/14 08:04:37;;;;;;;4.47;1.80;;;23.10;41.10;;;;;;5114289;28;20050;-74
2023/06/14 08:07:03;;;;;;;3.75;2.17;;;23.10;40.40;;;;;;5114207;28;20012;-74
2023/06/14 08:12:51;;;;;;;3.92;1.90;;;23.20;40.00;;;;;;5114291;28;20035;-74
2023/06/14 08:18:38;;;;;;;2.45;1.30;;;23.20;37.80;;;;;;5114211;28;20103;-74
2023/06/14 08:21:04;;;;;;;2.95;1.48;;;23.30;37.50;;;;;;5114021;28;20032;-74
2023/06/14 08:23:30;;;;;;;2.70;1.35;;;23.30;37.90;;;;;;5113989;28;20028;-74
2023/06/14 08:25:56;;;;;;;2.38;1.30;;;23.40;37.30;;;;;;5113864;28;20016;-74
2023/06/14 08:28:23;;;;;;;1.83;1.17;;;23.40;36.60;;;;;;5113928;28;20028;-74
2023/06/14 08:30:49;;;;;;;1.50;1.25;;;23.40;36.10;;;;;;5112939;28;20024;-74
2023/06/14 08:33:15;;;;;;;2.88;1.27;;;23.50;36.60;;;;;;5112984;28;20030;-74
2023/06/14 08:35:41;;;;;;;2.17;1.13;;;23.60;35.70;;;;;;5113810;28;20016;-75
2023/06/14 08:38:06;;;;;;;2.72;1.40;;;23.60;36.70;;;;;;5113550;28;20056;-75
2023/06/14 08:40:38;;;;;;;1.60;1.30;;;23.70;37.40;;;;;;5112851;28;20052;-75
2023/06/14 08:43:03;;;;;;;2.15;1.17;;;23.80;36.00;;;;;;5112755;28;20035;-75
2023/06/14 08:45:29;;;;;;;3.72;1.42;;;23.80;35.30;;;;;;5112671;28;20024;-75
2023/06/14 08:47:59;;;;;;;1.45;1.02;;;23.80;36.10;;;;;;5112604;28;20024;-75
2023/06/14 08:50:26;;;;;;;2.58;1.17;;;23.80;35.50;;;;;;5096322;28;20020;-75
2023/06/14 08:52:54;;;;;;;1.40;1.27;;;23.90;35.10;;;;;;5113548;28;20023;-75
2023/06/14 08:55:25;;;;;;;1.70;1.30;;;24.00;34.70;;;;;;5113691;28;20083;-74
2023/06/14 08:57:53;;;;;;;2.55;1.02;;;24.00;35.00;;;;;;5112677;28;20080;-74
2023/06/14 09:00:20;;;;;;;2.28;1.50;;;24.10;35.60;;;;;;5113544;28;20103;-74
2023/06/14 09:02:46;;;;;;;2.13;1.42;;;24.10;35.20;;;;;;5112398;28;20017;-75
2023/06/14 09:05:17;;;;;;;2.53;1.30;;;24.20;33.60;;;;;;5112502;28;20031;-75
2023/06/14 09:07:44;;;;;;;3.23;1.40;;;24.10;33.80;;;;;;5113535;28;20054;-75
2023/06/14 09:10:35;;;;;;;1.45;1.15;;;24.10;33.90;;;;;;5113409;28;20270;-75
2023/06/14 09:13:41;;;;;;;2.80;1.38;;;24.20;35.70;;;;;;5112650;28;20024;-75
2023/06/14 09:16:08;;;;;;;2.75;1.60;;;24.30;34.90;;;;;;5014977;28;20037;-75
2023/06/14 09:18:57;;;;;;;3.85;1.70;;;24.30;34.30;;;;;;5031457;28;20049;-75
2023/06/14 09:21:26;;;;;;;2.38;1.75;;;24.40;34.20;;;;;;5031412;28;20045;-75
2023/06/14 09:23:53;;;;;;;2.90;1.70;;;24.50;35.50;;;;;;5047717;28;20478;-74
2023/06/14 09:26:20;;;;;;;4.47;1.77;;;24.50;35.10;;;;;;5113248;28;20016;-74
2023/06/14 09:28:49;;;;;;;2.47;1.83;;;24.60;33.80;;;;;;5113178;28;20043;-74
2023/06/14 09:31:18;;;;;;;2.53;1.25;;;24.70;33.50;;;;;;5113367;28;20020;-74
2023/06/14 09:33:48;;;;;;;2.40;1.77;;;24.70;34.60;;;;;;5113182;28;20020;-75
2023/06/14 09:36:21;;;;;;;2.50;1.52;;;24.80;36.10;;;;;;5113187;28;20032;-74
2023/06/14 09:38:54;;;;;;;1.67;1.42;;;24.90;35.80;;;;;;5112995;28;20036;-74
2023/06/14 09:41:20;;;;;;;2.67;2.05;;;25.00;32.60;;;;;;5113100;28;20048;-75
2023/06/14 09:43:47;;;;;;;3.00;1.60;;;25.00;34.20;;;;;;5113123;28;20544;-75
2023/06/14 09:46:13;;;;;;;2.53;1.40;;;25.10;34.00;;;;;;5113187;28;20044;-75
2023/06/14 09:48:42;;;;;;;3.20;1.70;;;25.10;33.10;;;;;;5113130;28;20029;-74
2023/06/14 09:51:14;;;;;;;5.85;2.00;;;24.90;33.20;;;;;;5112966;28;20016;-75
2023/06/14 09:53:44;;;;;;;;;;;25.00;34.90;;;;;;5113637;28;20028;-74
2023/06/14 09:56:27;;;;;;;6.00;1.77;;;25.10;34.70;;;;;;5112988;28;19912;-75
2023/06/14 09:59:17;;;;;;;;;;;;;;;;;;;;;
2023/06/14 10:01:44;;;;;;;3.75;1.63;;;25.20;34.40;;;;;;5111903;28;20052;-74
2023/06/14 10:04:11;;;;;;;2.25;1.40;;;25.30;33.00;;;;;;5112907;28;20057;-74
2023/06/14 10:06:39;;;;;;;4.05;2.00;;;25.40;34.00;;;;;;5112868;28;20028;-74
2023/06/14 10:09:08;;;;;;;2.25;1.58;;;25.40;33.40;;;;;;5114123;28;20031;-74
2023/06/14 10:11:35;;;;;;;2.00;1.65;;;25.60;35.00;;;;;;5116523;28;20024;-74
2023/06/14 10:14:03;;;;;;;2.42;1.73;;;25.60;33.10;;;;;;5115603;28;20058;-74
2023/06/14 10:16:38;;;;;;;4.70;1.80;;;25.60;33.40;;;;;;5116327;28;20020;-75
2023/06/14 10:19:19;;;;;;;2.13;1.55;;;25.70;34.90;;;;;;5115370;28;20031;-75
2023/06/14 10:22:03;;;;;;;3.13;1.60;;;25.80;35.60;;;;;;5115330;28;20032;-74
2023/06/14 10:24:43;;;;;;;3.15;1.38;;;26.00;35.90;;;;;;5116283;28;20031;-75
2023/06/14 10:27:12;;;;;;;2.65;1.50;;;26.10;31.80;;;;;;5116218;28;20486;-75
2023/06/14 10:29:52;;;;;;;2.30;1.50;;;25.90;32.40;;;;;;5098706;28;20036;-75
2023/06/14 10:32:21;;;;;;;4.10;1.50;;;26.00;33.10;;;;;;5115115;28;20031;-75
2023/06/14 10:34:55;;;;;;;3.17;1.25;;;26.00;33.70;;;;;;5114954;28;20035;-74
2023/06/14 10:37:20;;;;;;;2.92;1.60;;;26.10;33.30;;;;;;5115909;28;20028;-75
2023/06/14 10:39:46;;;;;;;2.38;1.30;;;26.10;34.20;;;;;;5116162;28;20040;-75
2023/06/14 10:42:13;;;;;;;2.85;1.48;;;26.10;35.00;;;;;;5116038;28;20024;-75
2023/06/14 10:44:40;;;;;;;3.40;1.42;;;26.20;34.30;;;;;;5115876;28;20023;-75
2023/06/14 10:47:25;;;;;;;1.50;1.23;;;26.30;34.10;;;;;;5115857;28;20032;-75
2023/06/14 10:50:14;;;;;;;2.80;1.35;;;26.40;33.10;;;;;;5115795;28;20054;-77
2023/06/14 10:52:42;;;;;;;3.38;1.38;;;26.40;34.10;;;;;;5114871;28;20020;-77
2023/06/14 10:55:18;;;;;;;2.30;1.42;;;26.40;33.80;;;;;;5115662;28;20024;-77
2023/06/14 10:57:51;;;;;;;1.75;1.30;;;26.40;33.40;;;;;;5114748;28;20040;-77
2023/06/14 11:00:21;;;;;;;2.80;1.35;;;26.30;33.40;;;;;;5114547;28;20044;-77
2023/06/14 11:03:04;;;;;;;2.25;1.48;;;26.40;33.00;;;;;;5115581;28;20016;-76
2023/06/14 11:05:30;;;;;;;1.95;1.50;;;26.50;33.40;;;;;;5115665;28;20016;-77
2023/06/14 11:08:18;;;;;;;2.28;1.50;;;26.40;33.30;;;;;;5115426;28;20038;-76
2023/06/14 11:10:47;;;;;;;2.70;1.58;;;26.40;32.70;;;;;;5115511;28;20028;-77
2023/06/14 11:13:16;;;;;;;1.35;1.25;;;26.40;34.00;;;;;;5115407;28;20024;-77
2023/06/14 11:15:46;;;;;;;2.00;1.50;;;26.50;34.30;;;;;;5115259;28;20024;-77
2023/06/14 11:18:13;;;;;;;2.75;1.25;;;26.60;34.10;;;;;;5115261;28;20093;-77
2023/06/14 11:20:40;;;;;;;1.70;1.30;;;26.60;31.70;;;;;;5114379;28;20028;-77
2023/06/14 11:23:06;;;;;;;2.40;1.40;;;26.40;30.80;;;;;;5115117;28;20021;-77
2023/06/14 11:25:32;;;;;;;2.17;1.30;;;26.20;33.60;;;;;;5115207;28;20084;-76
2023/06/14 11:27:58;;;;;;;2.80;1.67;;;26.20;33.00;;;;;;5115001;28;20028;-76
2023/06/14 11:30:27;;;;;;;2.22;1.50;;;26.30;32.50;;;;;;5114989;28;20028;-76
2023/06/14 11:32:54;;;;;;;3.40;1.55;;;26.40;33.60;;;;;;5114962;28;20024;-76
2023/06/14 11:35:24;;;;;;;2.70;1.45;;;26.60;32.80;;;;;;5114559;28;20039;-74
2023/06/14 11:37:55;;;;;;;3.45;1.77;;;26.60;32.00;;;;;;5114673;28;20048;-75
2023/06/14 11:40:23;;;;;;;1.73;1.33;;;26.70;33.00;;;;;;5114825;28;20019;-75
2023/06/14 11:42:49;;;;;;;4.00;1.80;;;26.80;32.20;;;;;;5114691;28;20027;-75
2023/06/14 11:45:15;;;;;;;2.30;1.50;;;26.80;31.40;;;;;;5114697;28;20084;-75
2023/06/14 11:47:40;;;;;;;2.15;1.40;;;26.70;30.90;;;;;;5114697;28;20082;-75
2023/06/14 11:50:08;;;;;;;1.90;1.38;;;26.70;31.20;;;;;;5114591;28;20024;-76
2023/06/14 11:52:36;;;;;;;1.80;1.42;;;26.90;31.20;;;;;;5114566;28;20024;-76
2023/06/14 11:55:05;;;;;;;2.28;1.45;;;27.00;32.20;;;;;;5114502;28;20030;-75
2023/06/14 11:57:34;;;;;;;4.55;1.48;;;27.00;31.30;;;;;;5114365;28;20112;-75
2023/06/14 12:00:00;;;;;;;1.58;1.10;;;27.00;32.00;;;;;;5114508;28;20041;-75
2023/06/14 12:02:27;;;;;;;3.33;1.48;;;27.10;32.30;;;;;;5114363;28;20016;-76
2023/06/14 12:04:53;;;;;;;2.42;1.65;;;27.20;31.00;;;;;;5114386;28;20021;-75
2023/06/14 12:07:21;;;;;;;1.70;1.42;;;27.20;31.60;;;;;;5114303;28;20024;-75
2023/06/14 12:09:53;;;;;;;2.80;1.27;;;27.30;32.30;;;;;;5114226;28;20028;-75
2023/06/14 12:12:21;;;;;;;2.22;1.52;;;27.40;30.70;;;;;;5114222;28;20028;-75
2023/06/14 12:14:47;;;;;;;3.00;1.40;;;27.40;30.00;;;;;;5114095;28;20020;-77
2023/06/14 12:17:12;;;;;;;4.05;1.60;;;27.30;30.90;;;;;;5113005;28;20032;-75
2023/06/14 12:19:43;;;;;;;2.15;1.63;;;27.30;31.10;;;;;;5114232;28;20023;-75
2023/06/14 12:22:13;;;;;;;2.63;1.30;;;27.20;30.50;;;;;;5113077;28;20092;-77
2023/06/14 12:24:42;;;;;;;3.45;1.70;;;27.30;31.10;;;;;;5113090;28;20028;-76
2023/06/14 12:27:08;;;;;;;2.10;1.50;;;27.30;31.60;;;;;;5113989;28;20050;-76
2023/06/14 12:29:34;;;;;;;4.85;1.63;;;27.40;31.10;;;;;;5112910;28;20020;-75
2023/06/14 12:32:00;;;;;;;4.85;1.33;;;27.40;32.50;;;;;;5113757;28;20027;-75
2023/06/14 12:34:27;;;;;;;5.03;1.30;;;27.50;30.00;;;;;;5113816;28;20079;-75
2023/06/14 12:36:55;;;;;;;3.65;1.40;;;27.40;29.70;;;;;;5113903;28;20051;-75
2023/06/14 12:39:21;;;;;;;2.22;1.45;;;27.30;29.10;;;;;;5113496;28;20112;-75
2023/06/14 12:41:48;;;;;;;2.80;1.40;;;27.30;31.20;;;;;;5113694;28;20024;-75
2023/06/14 12:44:14;;;;;;;2.30;1.30;;;27.10;29.80;;;;;;5112750;28;20028;-77
2023/06/14 12:46:43;;;;;;;2.65;1.48;;;27.10;30.70;;;;;;5113705;28;20024;-77
2023/06/14 12:49:10;;;;;;;1.45;1.25;;;27.10;31.90;;;;;;5113651;28;20047;-75
2023/06/14 12:51:37;;;;;;;2.03;1.40;;;27.10;30.00;;;;;;5112531;28;20028;-75
2023/06/14 12:54:03;;;;;;;2.05;1.33;;;27.10;31.70;;;;;;5113630;28;20066;-75
2023/06/14 12:56:29;;;;;;;1.95;1.20;;;27.20;30.70;;;;;;5113610;28;20032;-75
2023/06/14 12:58:54;;;;;;;1.90;1.40;;;27.30;30.00;;;;;;5113534;28;20028;-75